createdAt,value
2023-04-29T00:00:46.276Z,89087.75
2023-04-29T00:03:13.226Z,89076.06
2023-04-29T00:05:40.464Z,89071.25
2023-04-29T00:08:07.435Z,89079.13
2023-04-29T00:10:34.262Z,89077.81
2023-04-29T00:13:01.219Z,89074.59
2023-04-29T00:15:28.099Z,89073.72
2023-04-29T00:17:55.009Z,89075.47
2023-04-29T00:20:21.998Z,89072.25
2023-04-29T00:22:48.801Z,89077.38
2023-04-29T00:25:15.784Z,89078.66
2023-04-29T00:27:42.746Z,89087.41
2023-04-29T00:30:09.901Z,89083.78
2023-04-29T00:32:36.798Z,89083.66
2023-04-29T00:35:03.844Z,89081.31
2023-04-29T00:37:30.601Z,89074.31
2023-04-29T00:39:57.430Z,89079.00
2023-04-29T00:42:25.543Z,89072.25
2023-04-29T00:44:52.484Z,89081.44
2023-04-29T00:47:19.283Z,89083.59
2023-04-29T00:49:46.307Z,89074.25
2023-04-29T00:52:14.907Z,89077.72
2023-04-29T00:54:42.018Z,89079.13
2023-04-29T00:57:09.114Z,89077.31
2023-04-29T00:59:36.597Z,89079.09
2023-04-29T01:02:04.340Z,89076.00
2023-04-29T01:04:31.860Z,89076.91
2023-04-29T01:07:05.312Z,89075.34
2023-04-29T01:09:44.962Z,89078.13
2023-04-29T01:12:40.721Z,89075.69
2023-04-29T01:15:33.172Z,89070.72
2023-04-29T01:18:12.805Z,89073.94
2023-04-29T01:20:41.223Z,89072.53
2023-04-29T01:23:08.245Z,89071.09
2023-04-29T01:25:35.183Z,89072.66
2023-04-29T01:28:13.820Z,89060.25
2023-04-29T01:31:00.790Z,89067.88
2023-04-29T01:33:41.272Z,89053.72
2023-04-29T01:36:22.830Z,89062.50
2023-04-29T01:39:03.580Z,89066.16
2023-04-29T01:41:44.532Z,89062.38
2023-04-29T01:44:24.629Z,89065.28
2023-04-29T01:46:52.863Z,89060.91
2023-04-29T01:49:25.865Z,89061.81
2023-04-29T01:51:52.794Z,89069.56
2023-04-29T01:54:19.631Z,89071.16
2023-04-29T01:56:46.603Z,89067.63
2023-04-29T01:59:13.415Z,89063.84
2023-04-29T02:01:40.175Z,89068.53
2023-04-29T02:04:07.345Z,89063.53
2023-04-29T02:06:34.307Z,89059.75
2023-04-29T02:09:01.153Z,89061.03
2023-04-29T02:11:28.157Z,89064.69
2023-04-29T02:13:54.915Z,89059.72
2023-04-29T02:16:21.872Z,89061.00
2023-04-29T02:18:48.840Z,89062.50
2023-04-29T02:21:15.602Z,89067.91
2023-04-29T02:23:42.524Z,89078.13
2023-04-29T02:26:09.435Z,89081.75
2023-04-29T02:28:36.523Z,89074.59
2023-04-29T02:31:03.457Z,89073.16
2023-04-29T02:33:30.324Z,89071.69
2023-04-29T02:35:57.120Z,89059.69
2023-04-29T02:38:24.036Z,89058.97
2023-04-29T02:40:51.125Z,89056.34
2023-04-29T02:43:18.070Z,89064.34
2023-04-29T02:45:44.969Z,89062.31
2023-04-29T02:48:12.355Z,89059.69
2023-04-29T02:50:39.228Z,89065.94
2023-04-29T02:53:06.069Z,89060.56
2023-04-29T02:55:33.102Z,89061.41
2023-04-29T02:58:00.153Z,89065.78
2023-04-29T03:00:26.959Z,89070.47
2023-04-29T03:02:54.119Z,89073.84
2023-04-29T03:05:21.049Z,89063.47
2023-04-29T03:07:47.908Z,89069.28
2023-04-29T03:10:14.899Z,89071.47
2023-04-29T03:12:41.681Z,89066.22
2023-04-29T03:15:08.798Z,89069.00
2023-04-29T03:17:35.698Z,89063.47
2023-04-29T03:20:02.926Z,89059.97
2023-04-29T03:22:29.866Z,89064.66
2023-04-29T03:24:56.671Z,89069.19
2023-04-29T03:27:23.512Z,89070.81
2023-04-29T03:29:50.673Z,89076.38
2023-04-29T03:32:17.830Z,89068.03
2023-04-29T03:34:44.708Z,89069.50
2023-04-29T03:37:11.457Z,89079.03
2023-04-29T03:39:38.488Z,89077.16
2023-04-29T03:42:05.419Z,89069.81
2023-04-29T03:44:32.249Z,89076.41
2023-04-29T03:46:59.161Z,89080.34
2023-04-29T03:49:26.372Z,89082.41
2023-04-29T03:51:53.254Z,89080.78
2023-04-29T03:54:20.275Z,89083.88
2023-04-29T03:56:47.086Z,89073.47
2023-04-29T03:59:13.925Z,89078.91
2023-04-29T04:01:41.576Z,89077.00
2023-04-29T04:04:08.620Z,89076.44
2023-04-29T04:06:35.648Z,89082.88
2023-04-29T04:09:02.807Z,89087.84
2023-04-29T04:11:29.678Z,89090.13
2023-04-29T04:13:56.520Z,89100.53
2023-04-29T04:16:23.523Z,89096.53
2023-04-29T04:18:50.406Z,89099.41
2023-04-29T04:21:17.250Z,89095.47
2023-04-29T04:23:44.142Z,89101.78
2023-04-29T04:26:10.974Z,89100.69
2023-04-29T04:28:37.821Z,89098.91
2023-04-29T04:31:04.917Z,89099.06
2023-04-29T04:33:31.731Z,89095.25
2023-04-29T04:35:58.582Z,89105.22
2023-04-29T04:38:25.624Z,89100.31
2023-04-29T04:40:52.416Z,89106.59
2023-04-29T04:43:19.199Z,89116.25
2023-04-29T04:45:46.208Z,89109.63
2023-04-29T04:48:13.075Z,89117.78
2023-04-29T04:50:39.877Z,89109.47
2023-04-29T04:53:06.717Z,89124.38
2023-04-29T04:55:33.549Z,89129.38
2023-04-29T04:58:00.469Z,89128.94
2023-04-29T05:00:27.457Z,89121.00
2023-04-29T05:02:54.414Z,89127.28
2023-04-29T05:05:21.287Z,89119.25
2023-04-29T05:07:48.223Z,89125.09
2023-04-29T05:10:15.131Z,89114.00
2023-04-29T05:34:05.056Z,89123.16
2023-04-29T05:36:32.076Z,89125.16
2023-04-29T05:38:58.926Z,89122.34
2023-04-29T05:41:26.050Z,89121.69
2023-04-29T05:43:52.930Z,89128.28
2023-04-29T05:46:19.870Z,89123.63
2023-04-29T05:48:46.820Z,89123.06
2023-04-29T05:51:13.669Z,89116.47
2023-04-29T05:53:40.478Z,89126.09
2023-04-29T05:56:07.722Z,89127.72
2023-04-29T05:58:37.687Z,89124.88
2023-04-29T06:01:04.576Z,89130.81
2023-04-29T06:03:31.650Z,89125.13
2023-04-29T06:05:59.119Z,89125.19
2023-04-29T06:08:26.576Z,89118.44
2023-04-29T06:10:53.485Z,89124.28
2023-04-29T06:13:20.420Z,89126.00
2023-04-29T06:15:47.434Z,89116.38
2023-04-29T06:18:14.389Z,89122.91
2023-04-29T06:20:41.266Z,89119.69
2023-04-29T06:23:08.464Z,89128.47
2023-04-29T06:25:35.444Z,89126.66
2023-04-29T06:28:02.329Z,89119.44
2023-04-29T06:30:29.467Z,89121.59
2023-04-29T06:32:56.386Z,89122.09
2023-04-29T06:35:23.178Z,89119.56
2023-04-29T06:37:50.033Z,89116.66
2023-04-29T06:40:17.259Z,89116.97
2023-04-29T06:42:44.119Z,89115.00
2023-04-29T06:45:11.172Z,89109.06
2023-04-29T06:47:38.268Z,89118.13
2023-04-29T06:50:05.552Z,89118.69
2023-04-29T06:52:32.369Z,89115.66
2023-04-29T06:54:59.256Z,89120.66
2023-04-29T06:57:26.342Z,89123.97
2023-04-29T06:59:53.393Z,89124.75
2023-04-29T07:02:20.691Z,89125.59
2023-04-29T07:04:47.582Z,89128.94
2023-04-29T07:07:14.487Z,89127.84
2023-04-29T07:09:41.410Z,89131.19
2023-04-29T07:12:08.358Z,89131.53
2023-04-29T07:14:35.217Z,89123.94
2023-04-29T07:17:02.096Z,89130.84
2023-04-29T07:19:28.886Z,89124.84
2023-04-29T07:21:55.720Z,89123.06
2023-04-29T07:24:22.577Z,89123.44
2023-04-29T07:26:49.448Z,89123.00
2023-04-29T07:29:16.291Z,89123.22
2023-04-29T07:31:44.977Z,89123.13
2023-04-29T07:34:11.877Z,89118.97
2023-04-29T07:36:39.470Z,89124.22
2023-04-29T07:39:06.407Z,89123.22
2023-04-29T07:41:33.166Z,89123.66
2023-04-29T07:43:59.998Z,89114.13
2023-04-29T07:46:26.884Z,89118.38
2023-04-29T07:48:53.790Z,89126.09
2023-04-29T07:51:20.553Z,89115.25
2023-04-29T07:53:47.430Z,89114.06
2023-04-29T07:56:14.226Z,89107.38
2023-04-29T07:58:40.970Z,89113.97
2023-04-29T08:01:11.580Z,89112.75
2023-04-29T08:03:41.063Z,89105.56
2023-04-29T08:06:09.124Z,89108.16
2023-04-29T08:08:36.220Z,89108.84
2023-04-29T08:11:03.031Z,89106.47
2023-04-29T08:13:29.820Z,89107.88
2023-04-29T08:15:56.913Z,89105.53
2023-04-29T08:18:23.887Z,89109.19
2023-04-29T08:20:50.736Z,89110.25
2023-04-29T08:23:17.609Z,89102.59
2023-04-29T08:25:44.669Z,89089.91
2023-04-29T08:28:11.584Z,89091.50
2023-04-29T08:30:41.599Z,89090.78
2023-04-29T08:33:09.228Z,89085.97
2023-04-29T08:35:36.252Z,89083.28
2023-04-29T08:38:03.861Z,89087.16
2023-04-29T08:40:30.830Z,89081.09
2023-04-29T08:42:59.076Z,89080.13
2023-04-29T08:45:28.965Z,89074.34
2023-04-29T08:47:57.377Z,89075.06
2023-04-29T08:50:24.604Z,89074.81
2023-04-29T08:52:51.497Z,89077.00
2023-04-29T08:55:18.314Z,89075.25
2023-04-29T08:57:49.706Z,89073.56
2023-04-29T09:00:18.052Z,89062.13
2023-04-29T09:02:49.864Z,89070.06
2023-04-29T09:05:17.090Z,89064.47
2023-04-29T09:07:44.534Z,89065.97
2023-04-29T09:10:11.987Z,89066.94
2023-04-29T09:12:39.021Z,89063.13
2023-04-29T09:15:06.384Z,89067.00
2023-04-29T09:17:44.676Z,89060.94
2023-04-29T09:20:20.672Z,89063.31
2023-04-29T09:22:51.739Z,89062.66
2023-04-29T09:25:19.475Z,89062.22
2023-04-29T09:27:46.707Z,89056.66
2023-04-29T09:30:13.847Z,89050.59
2023-04-29T09:32:40.660Z,89052.28
2023-04-29T09:35:29.656Z,89058.78
2023-04-29T09:38:14.149Z,89055.63
2023-04-29T09:40:56.861Z,89054.44
2023-04-29T09:43:25.476Z,89046.97
2023-04-29T09:45:52.381Z,89047.69
2023-04-29T09:48:19.265Z,89046.47
2023-04-29T09:51:00.582Z,89039.44
2023-04-29T09:53:31.747Z,89044.03
2023-04-29T09:56:01.193Z,89049.34
2023-04-29T09:58:35.260Z,89035.06
2023-04-29T10:01:03.402Z,89030.69
2023-04-29T10:03:38.142Z,89030.69
2023-04-29T10:06:07.085Z,89036.47
2023-04-29T10:08:35.194Z,89031.34
2023-04-29T10:11:04.053Z,89027.22
2023-04-29T10:13:31.566Z,89033.16
2023-04-29T10:16:08.112Z,89034.16
2023-04-29T10:18:44.998Z,89023.63
2023-04-29T10:21:13.899Z,89023.56
2023-04-29T10:23:43.295Z,89030.53
2023-04-29T10:26:14.040Z,89019.69
2023-04-29T10:28:42.661Z,89020.94
2023-04-29T10:31:10.171Z,89023.09
2023-04-29T10:33:40.353Z,89033.34
2023-04-29T10:36:08.140Z,89032.13
2023-04-29T10:38:40.578Z,89039.91
2023-04-29T10:41:17.153Z,89027.06
2023-04-29T10:43:44.077Z,89039.28
2023-04-29T10:46:16.675Z,89037.53
2023-04-29T10:48:47.847Z,89029.34
2023-04-29T10:51:29.763Z,89034.47
2023-04-29T10:54:21.080Z,89031.41
2023-04-29T10:56:53.058Z,89021.69
2023-04-29T10:59:43.152Z,89026.00
2023-04-29T11:02:12.887Z,89030.63
2023-04-29T11:05:08.697Z,89032.66
2023-04-29T11:07:35.493Z,89022.97
2023-04-29T11:10:03.061Z,89029.44
2023-04-29T11:12:30.045Z,89021.09
2023-04-29T11:14:58.792Z,89013.03
2023-04-29T11:17:27.144Z,89020.50
2023-04-29T11:19:55.500Z,89018.13
2023-04-29T11:22:29.633Z,89015.38
2023-04-29T11:25:07.457Z,89018.19
2023-04-29T11:27:39.523Z,89017.94
2023-04-29T11:30:07.813Z,89023.16
2023-04-29T11:32:37.485Z,89021.34
2023-04-29T11:35:13.076Z,89027.19
2023-04-29T11:37:40.940Z,89026.97
2023-04-29T11:40:08.663Z,89019.47
2023-04-29T11:42:38.455Z,89024.53
2023-04-29T11:45:05.686Z,89027.28
2023-04-29T11:47:32.491Z,89018.41
2023-04-29T11:50:07.596Z,89005.94
2023-04-29T11:52:36.523Z,89016.66
2023-04-29T11:55:04.645Z,89019.09
2023-04-29T11:57:31.816Z,89012.56
2023-04-29T11:59:59.289Z,89014.34
2023-04-29T12:02:33.141Z,89015.94
2023-04-29T12:05:01.771Z,89007.66
2023-04-29T12:07:29.191Z,88995.28
2023-04-29T12:09:56.101Z,88998.75
2023-04-29T12:12:23.106Z,89011.66
2023-04-29T12:14:50.589Z,89010.56
2023-04-29T12:17:17.865Z,89009.69
2023-04-29T12:19:44.898Z,89007.81
2023-04-29T12:22:11.806Z,89011.28
2023-04-29T12:24:40.177Z,89008.38
2023-04-29T12:27:10.705Z,89005.06
2023-04-29T12:29:38.423Z,89005.31
2023-04-29T12:32:05.436Z,89002.81
2023-04-29T12:34:33.383Z,89004.72
2023-04-29T12:37:02.301Z,89002.34
2023-04-29T12:39:31.276Z,88996.66
2023-04-29T12:41:59.027Z,88999.34
2023-04-29T12:44:26.688Z,89004.47
2023-04-29T12:46:54.628Z,88992.88
2023-04-29T12:49:25.216Z,89000.06
2023-04-29T12:51:52.095Z,89000.84
2023-04-29T12:54:18.980Z,88997.09
2023-04-29T12:56:45.909Z,89001.25
2023-04-29T12:59:12.671Z,89005.88
2023-04-29T13:01:39.610Z,88995.63
2023-04-29T13:04:06.987Z,89003.66
2023-04-29T13:06:33.979Z,89000.97
2023-04-29T13:09:00.997Z,88995.25
2023-04-29T13:11:32.519Z,88993.72
2023-04-29T13:14:01.516Z,88999.81
2023-04-29T13:16:28.414Z,88997.75
2023-04-29T13:19:12.372Z,88983.28
2023-04-29T13:21:42.066Z,88998.44
2023-04-29T13:24:08.946Z,88994.72
2023-04-29T13:26:35.847Z,89000.13
2023-04-29T13:29:02.720Z,88987.81
2023-04-29T13:31:29.716Z,88986.38
2023-04-29T13:33:56.631Z,88994.63
2023-04-29T13:36:26.492Z,88991.22
2023-04-29T13:38:55.518Z,88989.41
2023-04-29T13:41:22.776Z,88975.09
2023-04-29T13:43:51.053Z,88992.13
2023-04-29T13:46:20.588Z,88990.97
2023-04-29T13:51:49.070Z,88982.00
2023-04-29T14:04:09.626Z,88962.16
2023-04-29T14:06:36.669Z,88974.38
2023-04-29T14:09:04.098Z,88989.88
2023-04-29T14:11:31.143Z,88987.25
2023-04-29T14:13:58.117Z,88984.09
2023-04-29T14:16:25.332Z,88986.66
2023-04-29T14:18:52.416Z,89000.19
2023-04-29T14:21:19.270Z,88988.53
2023-04-29T14:23:46.075Z,88985.16
2023-04-29T14:26:27.285Z,88978.13
2023-04-29T14:28:56.469Z,88978.19
2023-04-29T14:31:34.196Z,88995.50
2023-04-29T14:34:01.090Z,88969.63
2023-04-29T14:36:27.945Z,88978.50
2023-04-29T14:38:54.949Z,88980.34
2023-04-29T14:41:22.109Z,88988.66
2023-04-29T14:43:49.111Z,88997.50
2023-04-29T14:46:16.373Z,88989.25
2023-04-29T14:48:43.279Z,88996.50
2023-04-29T14:51:10.263Z,88968.06
2023-04-29T14:53:37.196Z,89018.53
2023-04-29T14:56:04.136Z,88988.84
2023-04-29T14:58:31.020Z,89000.34
2023-04-29T15:00:57.959Z,88989.53
2023-04-29T15:03:25.063Z,88988.00
2023-04-29T15:05:52.360Z,88990.28
2023-04-29T15:08:19.747Z,88998.50
2023-04-29T15:10:46.969Z,88997.22
2023-04-29T15:13:13.906Z,89006.81
2023-04-29T15:15:40.844Z,89013.13
2023-04-29T15:18:07.935Z,89013.94
2023-04-29T15:20:38.291Z,89019.03
2023-04-29T15:23:06.147Z,89009.97
2023-04-29T15:25:33.216Z,89028.72
2023-04-29T15:28:00.659Z,89005.78
2023-04-29T15:30:28.042Z,89018.31
2023-04-29T15:32:55.586Z,89022.75
2023-04-29T15:35:22.555Z,89024.41
2023-04-29T15:37:49.754Z,89027.06
2023-04-29T15:40:16.649Z,89022.06
2023-04-29T15:42:43.495Z,89019.50
2023-04-29T15:45:11.056Z,89029.81
2023-04-29T15:47:38.275Z,89040.59
2023-04-29T15:50:05.659Z,89038.28
2023-04-29T15:52:32.688Z,89041.56
2023-04-29T15:54:59.650Z,89033.88
2023-04-29T15:57:26.700Z,89041.25
2023-04-29T15:59:53.689Z,89042.88
2023-04-29T16:02:20.704Z,89050.59
2023-04-29T16:04:47.588Z,89045.09
2023-04-29T16:07:17.750Z,89046.31
2023-04-29T16:09:44.586Z,89053.59
2023-04-29T16:12:11.424Z,89052.28
2023-04-29T16:14:41.560Z,89060.47
2023-04-29T16:17:08.595Z,89058.91
2023-04-29T16:19:37.044Z,89057.72
2023-04-29T16:22:04.761Z,89067.84
2023-04-29T16:24:33.569Z,89066.28
2023-04-29T16:27:00.439Z,89067.94
2023-04-29T16:29:30.085Z,89071.06
2023-04-29T16:31:57.124Z,89071.88
2023-04-29T16:34:23.975Z,89070.66
2023-04-29T16:36:54.285Z,89073.38
2023-04-29T16:39:21.080Z,89080.53
2023-04-29T16:41:47.988Z,89076.44
2023-04-29T16:44:15.069Z,89083.00
2023-04-29T16:46:45.082Z,89096.78
2023-04-29T16:49:12.499Z,89099.78
2023-04-29T16:51:41.780Z,89092.22
2023-04-29T16:54:08.641Z,89085.72
2023-04-29T16:56:35.511Z,89077.06
2023-04-29T16:59:02.443Z,89090.34
2023-04-29T17:01:29.350Z,89096.22
2023-04-29T17:03:56.337Z,89092.16
2023-04-29T17:06:23.797Z,89087.38
2023-04-29T17:08:51.572Z,89088.50
2023-04-29T17:11:18.824Z,89089.66
2023-04-29T17:13:45.706Z,89079.56
2023-04-29T17:16:12.544Z,89074.44
2023-04-29T17:18:39.432Z,89077.00
2023-04-29T17:21:07.940Z,89084.09
2023-04-29T17:23:35.277Z,89073.53
2023-04-29T17:26:02.446Z,89080.09
2023-04-29T17:28:29.293Z,89081.34
2023-04-29T17:30:58.971Z,89088.06
2023-04-29T17:33:26.652Z,89079.22
2023-04-29T17:35:53.561Z,89089.91
2023-04-29T17:38:23.071Z,89089.53
2023-04-29T17:40:52.930Z,89091.28
2023-04-29T17:43:22.798Z,89093.00
2023-04-29T17:45:49.711Z,89096.28
2023-04-29T17:48:16.579Z,89093.91
2023-04-29T17:50:43.388Z,89101.97
2023-04-29T17:53:10.267Z,89110.28
2023-04-29T17:55:41.145Z,89112.00
2023-04-29T17:58:11.074Z,89113.72
2023-04-29T18:00:41.264Z,89107.97
2023-04-29T18:03:08.251Z,89116.63
2023-04-29T18:05:35.174Z,89108.53
2023-04-29T18:08:02.030Z,89109.25
2023-04-29T18:10:28.852Z,89119.66
2023-04-29T18:12:55.668Z,89126.84
2023-04-29T18:15:22.551Z,89131.38
2023-04-29T18:17:50.441Z,89125.66
2023-04-29T18:20:17.293Z,89123.47
2023-04-29T18:22:44.157Z,89132.03
2023-04-29T18:25:11.208Z,89126.41
2023-04-29T18:27:38.081Z,89130.34
2023-04-29T18:30:05.531Z,89133.38
2023-04-29T18:32:32.392Z,89133.97
2023-04-29T18:34:59.195Z,89133.44
2023-04-29T18:37:25.971Z,89127.69
2023-04-29T18:39:53.090Z,89131.28
2023-04-29T18:42:25.574Z,89129.31
2023-04-29T18:44:55.098Z,89128.19
2023-04-29T18:47:22.221Z,89122.34
2023-04-29T18:49:49.104Z,89124.53
2023-04-29T18:52:16.094Z,89129.94
2023-04-29T18:54:42.954Z,89118.56
2023-04-29T18:57:09.780Z,89124.75
2023-04-29T18:59:36.733Z,89119.34
2023-04-29T19:02:03.910Z,89123.59
2023-04-29T19:04:30.832Z,89118.16
2023-04-29T19:06:58.302Z,89119.31
2023-04-29T19:09:25.268Z,89121.97
2023-04-29T19:11:52.089Z,89117.59
2023-04-29T19:14:18.941Z,89118.50
2023-04-29T19:16:45.868Z,89109.69
2023-04-29T19:19:20.322Z,89106.84
2023-04-29T19:21:47.438Z,89107.78
2023-04-29T19:24:14.312Z,89106.00
2023-04-29T19:26:41.299Z,89098.19
2023-04-29T19:29:08.342Z,89098.91
2023-04-29T19:31:35.351Z,89104.94
2023-04-29T19:34:02.370Z,89092.38
2023-04-29T19:36:29.317Z,89104.09
2023-04-29T19:38:56.245Z,89098.47
2023-04-29T19:41:23.277Z,89104.84
2023-04-29T19:43:50.151Z,89098.28
2023-04-29T19:46:16.961Z,89102.63
2023-04-29T19:48:45.651Z,89099.28
2023-04-29T19:51:12.459Z,89093.72
2023-04-29T19:53:39.365Z,89104.97
2023-04-29T19:56:06.275Z,89106.41
2023-04-29T19:58:33.156Z,89110.59
2023-04-29T20:01:00.038Z,89103.53
2023-04-29T20:03:27.076Z,89103.03
2023-04-29T20:05:54.159Z,89103.75
2023-04-29T20:08:21.191Z,89110.19
2023-04-29T20:10:48.309Z,89098.66
2023-04-29T20:13:15.177Z,89102.13
2023-04-29T20:15:42.391Z,89105.78
2023-04-29T20:18:09.342Z,89107.81
2023-04-29T20:20:36.205Z,89105.44
2023-04-29T20:23:03.652Z,89104.63
2023-04-29T20:25:31.153Z,89106.91
2023-04-29T20:27:57.945Z,89100.72
2023-04-29T20:30:24.835Z,89100.34
2023-04-29T20:32:52.026Z,89107.81
2023-04-29T20:35:22.035Z,89107.63
2023-04-29T20:37:48.993Z,89098.69
2023-04-29T20:40:15.865Z,89103.81
2023-04-29T20:42:42.775Z,89099.63
2023-04-29T20:45:10.298Z,89102.22
2023-04-29T20:47:37.651Z,89100.97
2023-04-29T20:50:04.891Z,89100.16
2023-04-29T20:52:31.818Z,89090.75
2023-04-29T20:54:58.692Z,89087.22
2023-04-29T20:57:25.497Z,89090.31
2023-04-29T20:59:52.575Z,89093.78
2023-04-29T21:02:20.176Z,89090.84
2023-04-29T21:04:47.160Z,89093.31
2023-04-29T21:07:14.107Z,89093.84
2023-04-29T21:09:41.036Z,89096.56
2023-04-29T21:12:08.093Z,89100.22
2023-04-29T21:14:35.704Z,89089.56
2023-04-29T21:17:02.625Z,89095.28
2023-04-29T21:19:29.527Z,89100.13
2023-04-29T21:21:56.317Z,89092.50
2023-04-29T21:24:23.263Z,89099.09
2023-04-29T21:26:59.100Z,89099.97
2023-04-29T21:29:25.973Z,89093.97
2023-04-29T21:31:52.907Z,89099.84
2023-04-29T21:34:19.721Z,89094.25
2023-04-29T21:36:46.826Z,89094.56
2023-04-29T21:39:13.648Z,89086.06
2023-04-29T21:41:43.169Z,89088.69
2023-04-29T21:44:12.428Z,89088.69
2023-04-29T21:46:39.738Z,89086.50
2023-04-29T21:49:06.692Z,89079.91
2023-04-29T21:51:34.489Z,89087.63
2023-04-29T21:54:01.469Z,89091.00
2023-04-29T21:56:28.442Z,89083.69
2023-04-29T21:58:55.326Z,89080.50
2023-04-29T22:01:22.373Z,89074.09
2023-04-29T22:03:49.364Z,89071.47
2023-04-29T22:06:16.378Z,89068.81
2023-04-29T22:08:43.202Z,89066.75
2023-04-29T22:11:09.976Z,89070.00
2023-04-29T22:13:36.887Z,89073.22
2023-04-29T22:16:03.885Z,89062.97
2023-04-29T22:18:30.810Z,89062.38
2023-04-29T22:20:57.709Z,89065.75
2023-04-29T22:23:24.582Z,89064.13
2023-04-29T22:25:51.477Z,89063.56
2023-04-29T22:28:18.437Z,89061.63
2023-04-29T22:30:45.243Z,89061.50
2023-04-29T22:33:13.086Z,89045.41
2023-04-29T22:35:40.002Z,89057.41
2023-04-29T22:38:06.850Z,89056.53
2023-04-29T22:40:33.641Z,89045.84
2023-04-29T22:43:00.684Z,89050.97
2023-04-29T22:45:27.490Z,89045.69
2023-04-29T22:47:54.349Z,89041.88
2023-04-29T22:50:21.167Z,89045.66
2023-04-29T22:52:48.105Z,89037.25
2023-04-29T22:55:15.003Z,89041.78
2023-04-29T22:57:41.902Z,89037.03
2023-04-29T23:00:09.350Z,89045.81
2023-04-29T23:02:36.214Z,89044.03
2023-04-29T23:05:03.286Z,89047.34
2023-04-29T23:07:30.287Z,89044.88
2023-04-29T23:09:57.228Z,89047.53
2023-04-29T23:12:24.186Z,89040.81
2023-04-29T23:14:50.985Z,89036.03
2023-04-29T23:17:17.815Z,89043.66
2023-04-29T23:19:44.749Z,89038.38
2023-04-29T23:22:11.570Z,89039.63
2023-04-29T23:24:38.359Z,89040.28
2023-04-29T23:27:05.271Z,89024.19
2023-04-29T23:29:33.365Z,89028.34
2023-04-29T23:32:00.499Z,89033.91
2023-04-29T23:34:27.480Z,89029.31
2023-04-29T23:36:54.401Z,89027.84
2023-04-29T23:39:21.173Z,89031.69
2023-04-29T23:41:48.099Z,89031.69
2023-04-29T23:44:14.920Z,89035.84
2023-04-29T23:46:41.830Z,89040.06
2023-04-29T23:49:08.928Z,89041.59
2023-04-29T23:51:35.749Z,89034.28
2023-04-29T23:54:02.593Z,89031.41
2023-04-29T23:56:29.479Z,89041.13
2023-04-29T23:58:56.334Z,89039.97
